createdAt,value
2023-01-10T00:55:32.979Z,25.02
2023-01-10T00:56:33.807Z,25.01
2023-01-10T00:57:33.751Z,24.98
2023-01-10T00:58:33.701Z,24.95
2023-01-10T00:59:33.654Z,25.02
2023-01-10T01:00:33.653Z,24.99
2023-01-10T01:01:33.709Z,25.02
2023-01-10T01:02:33.527Z,25.00
2023-01-10T01:03:33.480Z,25.01
2023-01-10T01:04:33.413Z,25.01
2023-01-10T01:05:33.358Z,24.99
2023-01-10T01:06:33.326Z,24.99
2023-01-10T01:07:33.263Z,24.98
2023-01-10T01:08:33.216Z,24.96
2023-01-10T01:09:33.169Z,24.95
2023-01-10T01:10:33.118Z,24.95
2023-01-10T01:11:33.095Z,24.93
2023-01-10T01:12:33.025Z,24.96
2023-01-10T01:13:33.043Z,24.90
2023-01-10T01:14:32.915Z,24.87
2023-01-10T01:15:32.922Z,24.90
2023-01-10T01:16:32.811Z,24.90
2023-01-10T01:17:32.769Z,24.90
2023-01-10T01:18:32.743Z,24.90
2023-01-10T01:19:32.685Z,24.92
2023-01-10T01:20:32.612Z,24.89
2023-01-10T01:21:32.569Z,24.98
2023-01-10T01:22:32.521Z,24.96
2023-01-10T01:23:32.477Z,24.89
2023-01-10T01:24:32.455Z,24.95
2023-01-10T01:25:32.364Z,24.90
2023-01-10T01:26:32.318Z,24.96
2023-01-10T01:27:32.296Z,24.93
2023-01-10T01:28:32.216Z,24.92
2023-01-10T01:29:42.279Z,24.89
2023-01-10T01:30:32.126Z,24.87
2023-01-10T01:31:32.094Z,24.87
2023-01-10T01:32:32.018Z,24.92
2023-01-10T01:33:32.616Z,24.84
2023-01-10T01:34:31.927Z,24.87
2023-01-10T01:35:31.850Z,24.91
2023-01-10T01:36:31.857Z,24.89
2023-01-10T01:37:31.750Z,24.93
2023-01-10T01:38:31.730Z,24.88
2023-01-10T01:39:31.657Z,24.86
2023-01-10T01:40:31.620Z,24.90
2023-01-10T01:41:31.552Z,24.87
2023-01-10T01:42:31.505Z,24.88
2023-01-10T01:43:31.479Z,24.84
2023-01-10T01:44:31.448Z,24.88
2023-01-10T01:45:31.424Z,24.84
2023-01-10T01:46:31.438Z,24.87
2023-01-10T01:47:31.265Z,24.79
2023-01-10T01:48:31.233Z,24.84
2023-01-10T01:49:31.177Z,24.84
2023-01-10T01:50:31.181Z,24.88
2023-01-10T01:51:31.059Z,24.81
2023-01-10T01:52:31.012Z,24.79
2023-01-10T01:53:30.989Z,24.84
2023-01-10T01:54:30.922Z,24.79
2023-01-10T01:55:30.863Z,24.83
2023-01-10T01:56:30.805Z,24.78
2023-01-10T01:57:30.745Z,24.81
2023-01-10T01:58:30.694Z,24.86
2023-01-10T01:59:30.680Z,24.81
2023-01-10T02:00:30.617Z,24.75
2023-01-10T02:01:30.668Z,24.79
2023-01-10T02:02:30.500Z,24.75
2023-01-10T02:03:30.527Z,24.77
2023-01-10T02:04:30.395Z,24.74
2023-01-10T02:05:30.330Z,24.78
2023-01-10T02:06:30.293Z,24.77
2023-01-10T02:07:30.229Z,24.78
2023-01-10T02:08:30.182Z,24.78
2023-01-10T02:09:30.130Z,24.78
2023-01-10T02:10:30.078Z,24.72
2023-01-10T02:11:30.066Z,24.72
2023-01-10T02:12:30.003Z,24.78
2023-01-10T02:13:29.933Z,24.72
2023-01-10T02:14:29.885Z,24.71
2023-01-10T02:15:29.859Z,24.72
2023-01-10T02:16:29.821Z,24.75
2023-01-10T02:17:29.749Z,24.72
2023-01-10T02:18:29.680Z,24.72
2023-01-10T02:19:29.631Z,24.75
2023-01-10T02:20:29.581Z,24.74
2023-01-10T02:21:29.530Z,24.68
2023-01-10T02:22:29.485Z,24.71
2023-01-10T02:23:29.432Z,24.68
2023-01-10T02:24:29.386Z,24.71
2023-01-10T02:25:29.337Z,24.71
2023-01-10T02:26:29.283Z,24.72
2023-01-10T02:27:29.240Z,24.66
2023-01-10T02:28:29.192Z,24.68
2023-01-10T02:29:29.129Z,24.65
2023-01-10T02:30:29.088Z,24.71
2023-01-10T02:31:29.071Z,24.68
2023-01-10T02:32:42.102Z,24.71
2023-01-10T02:33:28.949Z,24.71
2023-01-10T02:34:28.901Z,24.68
2023-01-10T02:35:28.890Z,24.66
2023-01-10T02:36:28.806Z,24.66
2023-01-10T02:37:28.749Z,24.69
2023-01-10T02:38:28.699Z,24.67
2023-01-10T02:39:28.688Z,24.66
2023-01-10T02:40:28.607Z,24.66
2023-01-10T02:41:28.563Z,24.65
2023-01-10T02:42:28.515Z,24.69
2023-01-10T02:43:28.475Z,24.69
2023-01-10T02:44:28.441Z,24.63
2023-01-10T02:45:28.392Z,24.65
2023-01-10T02:46:28.455Z,24.69
2023-01-10T02:47:28.422Z,24.63
2023-01-10T02:48:28.236Z,24.68
2023-01-10T02:49:28.191Z,24.66
2023-01-10T02:50:28.217Z,24.59
2023-01-10T02:51:28.123Z,24.62
2023-01-10T02:52:28.053Z,24.63
2023-01-10T02:53:28.014Z,24.62
2023-01-10T02:54:28.012Z,24.65
2023-01-10T02:55:27.928Z,24.62
2023-01-10T02:56:27.894Z,24.63
2023-01-10T02:57:27.837Z,24.60
2023-01-10T02:58:27.804Z,24.63
2023-01-10T02:59:27.769Z,24.56
2023-01-10T03:00:27.708Z,24.63
2023-01-10T03:01:27.859Z,24.62
2023-01-10T03:02:27.632Z,24.65
2023-01-10T03:03:27.622Z,24.65
2023-01-10T03:04:27.545Z,24.62
2023-01-10T03:05:27.488Z,24.66
2023-01-10T03:06:27.522Z,24.63
2023-01-10T03:07:27.398Z,24.54
2023-01-10T03:08:27.359Z,24.60
2023-01-10T03:09:27.313Z,24.60
2023-01-10T03:10:27.265Z,24.65
2023-01-10T03:11:27.265Z,24.56
2023-01-10T03:12:27.192Z,24.60
2023-01-10T03:13:27.133Z,24.60
2023-01-10T03:14:27.102Z,24.59
2023-01-10T03:15:27.048Z,24.59
2023-01-10T03:16:27.096Z,24.59
2023-01-10T03:17:26.998Z,24.57
2023-01-10T03:18:26.925Z,24.57
2023-01-10T03:19:26.902Z,24.56
2023-01-10T03:20:26.871Z,24.56
2023-01-10T03:21:26.789Z,24.54
2023-01-10T03:22:26.815Z,24.55
2023-01-10T03:23:26.716Z,24.54
2023-01-10T03:24:26.659Z,24.56
2023-01-10T03:25:26.618Z,24.60
2023-01-10T03:26:26.567Z,24.54
2023-01-10T03:27:26.527Z,24.55
2023-01-10T03:28:26.478Z,24.56
2023-01-10T03:29:26.472Z,24.56
2023-01-10T03:30:26.388Z,24.54
2023-01-10T03:31:26.464Z,24.57
2023-01-10T03:32:26.324Z,24.56
2023-01-10T03:33:26.266Z,24.56
2023-01-10T03:34:26.252Z,24.54
2023-01-10T03:35:26.202Z,24.57
2023-01-10T03:36:26.173Z,24.54
2023-01-10T03:37:26.088Z,24.56
2023-01-10T03:38:26.040Z,24.51
2023-01-10T03:39:26.005Z,24.50
2023-01-10T03:40:25.957Z,24.53
2023-01-10T03:41:25.970Z,24.54
2023-01-10T03:42:25.875Z,24.48
2023-01-10T03:43:26.701Z,24.54
2023-01-10T03:44:25.811Z,24.51
2023-01-10T03:45:25.747Z,24.53
2023-01-10T03:46:25.733Z,24.50
2023-01-10T03:47:25.652Z,24.51
2023-01-10T03:48:25.632Z,24.56
2023-01-10T03:49:25.561Z,24.50
2023-01-10T03:50:25.510Z,24.46
2023-01-10T03:51:25.495Z,24.48
2023-01-10T03:52:25.419Z,24.48
2023-01-10T03:53:25.408Z,24.51
2023-01-10T03:54:25.334Z,24.53
2023-01-10T03:55:25.283Z,24.50
2023-01-10T03:56:25.244Z,24.47
2023-01-10T03:57:25.194Z,24.51
2023-01-10T03:58:25.144Z,24.50
2023-01-10T03:59:25.100Z,24.51
2023-01-10T04:00:25.057Z,24.45
2023-01-10T04:01:25.124Z,24.48
2023-01-10T04:02:25.004Z,24.50
2023-01-10T04:03:24.943Z,24.53
2023-01-10T04:04:24.968Z,24.47
2023-01-10T04:05:24.819Z,24.44
2023-01-10T04:06:24.776Z,24.53
2023-01-10T04:07:24.807Z,24.48
2023-01-10T04:08:24.687Z,24.47
2023-01-10T04:09:24.643Z,24.48
2023-01-10T04:10:25.313Z,24.45
2023-01-10T04:11:24.554Z,24.50
2023-01-10T04:12:24.501Z,24.48
2023-01-10T04:13:24.448Z,24.44
2023-01-10T04:14:24.408Z,24.45
2023-01-10T04:15:24.353Z,24.53
2023-01-10T04:16:24.357Z,24.48
2023-01-10T04:17:24.259Z,24.45
2023-01-10T04:18:24.220Z,24.47
2023-01-10T04:19:24.161Z,24.48
2023-01-10T04:20:24.106Z,24.48
2023-01-10T04:21:24.099Z,24.50
2023-01-10T04:22:24.008Z,24.42
2023-01-10T04:23:23.980Z,24.47
2023-01-10T04:24:23.891Z,24.44
2023-01-10T04:25:23.835Z,24.47
2023-01-10T04:26:23.781Z,24.44
2023-01-10T04:27:23.741Z,24.45
2023-01-10T04:28:24.759Z,24.45
2023-01-10T04:29:23.621Z,24.48
2023-01-10T04:30:23.576Z,24.48
2023-01-10T04:31:23.576Z,24.45
2023-01-10T04:32:23.513Z,24.50
2023-01-10T04:33:23.433Z,24.39
2023-01-10T04:34:23.381Z,24.45
2023-01-10T04:35:23.336Z,24.45
2023-01-10T04:36:23.293Z,24.45
2023-01-10T04:37:23.269Z,24.45
2023-01-10T04:38:23.193Z,24.39
2023-01-10T04:39:23.182Z,24.48
2023-01-10T04:40:23.109Z,24.41
2023-01-10T04:41:23.048Z,24.42
2023-01-10T04:42:23.034Z,24.45
2023-01-10T04:43:22.952Z,24.44
2023-01-10T04:44:22.914Z,24.39
2023-01-10T04:45:22.864Z,24.42
2023-01-10T04:46:22.813Z,24.41
2023-01-10T04:47:22.765Z,24.39
2023-01-10T04:48:22.794Z,24.38
2023-01-10T04:49:22.658Z,24.41
2023-01-10T04:50:22.607Z,24.42
2023-01-10T04:51:22.557Z,24.41
2023-01-10T04:52:22.504Z,24.40
2023-01-10T04:53:22.486Z,24.42
2023-01-10T04:54:22.444Z,24.41
2023-01-10T04:55:22.410Z,24.44
2023-01-10T04:56:22.309Z,24.44
2023-01-10T04:57:22.259Z,24.42
2023-01-10T04:58:22.227Z,24.39
2023-01-10T04:59:22.164Z,24.42
2023-01-10T05:00:22.164Z,24.39
2023-01-10T05:01:22.124Z,24.41
2023-01-10T05:02:22.161Z,24.35
2023-01-10T05:03:21.960Z,24.39
2023-01-10T05:04:21.908Z,24.41
2023-01-10T05:05:21.862Z,24.42
2023-01-10T05:06:21.822Z,24.42
2023-01-10T05:07:21.766Z,24.36
2023-01-10T05:08:21.737Z,24.36
2023-01-10T05:09:21.708Z,24.34
2023-01-10T05:10:21.633Z,24.35
2023-01-10T05:11:21.610Z,24.39
2023-01-10T05:12:21.569Z,24.32
2023-01-10T05:13:21.491Z,24.35
2023-01-10T05:14:21.444Z,24.36
2023-01-10T05:15:21.391Z,24.32
2023-01-10T05:16:21.417Z,24.38
2023-01-10T05:17:21.297Z,24.38
2023-01-10T05:18:21.239Z,24.36
2023-01-10T05:19:21.215Z,24.41
2023-01-10T05:20:21.142Z,24.38
2023-01-10T05:21:21.102Z,24.33
2023-01-10T05:22:21.048Z,24.35
2023-01-10T05:23:20.996Z,24.35
2023-01-10T05:24:20.978Z,24.33
2023-01-10T05:25:20.902Z,24.30
2023-01-10T05:26:20.855Z,24.35
2023-01-10T05:27:20.837Z,24.33
2023-01-10T05:28:20.770Z,24.36
2023-01-10T05:29:20.758Z,24.32
2023-01-10T05:30:20.696Z,24.33
2023-01-10T05:31:20.722Z,24.30
2023-01-10T05:32:20.599Z,24.36
2023-01-10T05:33:20.552Z,24.38
2023-01-10T05:34:20.503Z,24.35
2023-01-10T05:35:20.462Z,24.35
2023-01-10T05:36:20.440Z,24.35
2023-01-10T05:37:20.367Z,24.36
2023-01-10T05:38:20.323Z,24.32
2023-01-10T05:39:20.374Z,24.27
2023-01-10T05:40:20.238Z,24.33
2023-01-10T05:41:20.200Z,24.36
2023-01-10T05:42:20.152Z,24.38
2023-01-10T05:43:20.137Z,24.33
2023-01-10T05:44:20.074Z,24.32
2023-01-10T05:45:20.043Z,24.32
2023-01-10T05:46:20.030Z,24.35
2023-01-10T05:47:19.937Z,24.29
2023-01-10T05:48:19.897Z,24.32
2023-01-10T05:49:19.878Z,24.30
2023-01-10T05:50:19.800Z,24.35
2023-01-10T05:51:19.781Z,24.32
2023-01-10T05:52:19.726Z,24.33
2023-01-10T05:53:19.667Z,24.32
2023-01-10T05:54:19.597Z,24.29
2023-01-10T05:55:19.540Z,24.32
2023-01-10T05:56:19.542Z,24.33
2023-01-10T05:57:19.452Z,24.30
2023-01-10T05:58:19.396Z,24.30
2023-01-10T05:59:28.162Z,24.30
2023-01-10T06:00:19.312Z,24.30
2023-01-10T06:01:19.327Z,24.29
2023-01-10T06:02:19.346Z,24.29
2023-01-10T06:03:19.252Z,24.23
2023-01-10T06:04:19.089Z,24.23
2023-01-10T06:05:19.039Z,24.28
2023-01-10T06:06:19.017Z,24.27
2023-01-10T06:07:18.938Z,24.32
2023-01-10T06:08:18.886Z,24.29
2023-01-10T06:09:18.824Z,24.29
2023-01-10T06:10:18.778Z,24.29
2023-01-10T06:11:18.757Z,24.30
2023-01-10T06:12:18.674Z,24.27
2023-01-10T06:13:18.619Z,24.29
2023-01-10T06:14:18.574Z,24.29
2023-01-10T06:15:18.624Z,24.24
2023-01-10T06:16:18.538Z,24.24
2023-01-10T06:17:18.419Z,24.29
2023-01-10T06:18:18.358Z,24.24
2023-01-10T06:19:18.316Z,24.27
2023-01-10T06:20:18.795Z,24.20
2023-01-10T06:21:18.209Z,24.27
2023-01-10T06:22:18.272Z,24.29
2023-01-10T06:23:18.105Z,24.30
2023-01-10T06:24:18.053Z,24.29
2023-01-10T06:25:18.278Z,24.57
2023-01-10T06:26:17.946Z,24.42
2023-01-10T06:27:17.896Z,24.38
2023-01-10T06:28:17.841Z,24.40
2023-01-10T06:29:17.783Z,24.33
2023-01-10T06:30:17.779Z,24.30
2023-01-10T06:31:17.776Z,24.35
2023-01-10T06:32:17.697Z,24.30
2023-01-10T06:33:17.575Z,24.29
2023-01-10T06:34:17.515Z,24.32
2023-01-10T06:35:17.458Z,24.32
2023-01-10T06:36:17.414Z,24.26
2023-01-10T06:37:20.172Z,24.29
2023-01-10T06:38:17.306Z,24.28
2023-01-10T06:39:17.239Z,24.38
2023-01-10T06:40:17.191Z,24.41
2023-01-10T06:41:17.137Z,24.41
2023-01-10T06:42:17.306Z,24.35
2023-01-10T06:43:17.033Z,24.38
2023-01-10T06:44:16.991Z,24.33
2023-01-10T06:45:16.939Z,24.35
2023-01-10T06:46:16.954Z,24.49
2023-01-10T06:47:17.347Z,24.46
2023-01-10T06:48:16.795Z,24.45
2023-01-10T06:49:16.748Z,24.52
2023-01-10T06:50:16.710Z,24.49
2023-01-10T06:51:19.173Z,24.61
2023-01-10T06:52:16.883Z,25.00
2023-01-10T06:53:16.571Z,25.28
2023-01-10T06:54:16.993Z,25.10
2023-01-10T06:55:16.475Z,25.12
2023-01-10T06:56:16.440Z,25.96
2023-01-10T06:57:16.777Z,26.19
2023-01-10T06:58:17.051Z,26.13
2023-01-10T06:59:16.315Z,26.38
2023-01-10T07:00:16.265Z,26.42
2023-01-10T07:01:16.411Z,26.63
2023-01-10T07:02:16.212Z,26.70
2023-01-10T07:03:16.312Z,26.88
2023-01-10T07:04:16.222Z,27.02
2023-01-10T07:05:16.060Z,27.06
2023-01-10T07:06:16.023Z,27.15
2023-01-10T07:07:15.984Z,27.42
2023-01-10T07:08:16.269Z,27.58
2023-01-10T07:09:16.855Z,27.61
2023-01-10T07:10:16.666Z,27.77
2023-01-10T07:11:15.755Z,27.95
2023-01-10T07:12:15.695Z,28.02
2023-01-10T07:13:15.645Z,28.22
2023-01-10T07:14:15.610Z,28.37
2023-01-10T07:15:15.551Z,28.49
2023-01-10T07:16:15.906Z,28.63
2023-01-10T07:17:15.440Z,28.74
2023-01-10T07:18:15.390Z,28.87
2023-01-10T07:19:15.356Z,28.93
2023-01-10T07:20:15.287Z,29.14
2023-01-10T07:21:15.286Z,29.31
2023-01-10T07:22:15.283Z,29.44
2023-01-10T07:23:15.125Z,29.55
2023-01-10T07:24:15.318Z,29.61
2023-01-10T07:25:15.026Z,29.68
2023-01-10T07:26:14.968Z,29.85
2023-01-10T07:27:15.800Z,29.83
2023-01-10T07:28:14.866Z,30.05
2023-01-10T07:29:14.803Z,30.05
2023-01-10T07:30:14.748Z,30.18
2023-01-10T07:31:14.768Z,30.30
2023-01-10T07:32:14.810Z,30.38
2023-01-10T07:33:14.595Z,30.45
2023-01-10T07:34:14.542Z,30.57
2023-01-10T07:35:14.533Z,30.60
2023-01-10T07:36:14.458Z,30.68
2023-01-10T07:37:14.378Z,30.91
2023-01-10T07:38:14.870Z,30.94
2023-01-10T07:39:14.298Z,31.03
2023-01-10T07:40:14.246Z,31.03
2023-01-10T07:41:14.162Z,31.16
2023-01-10T07:42:14.101Z,31.55
2023-01-10T07:43:14.322Z,31.16
2023-01-10T07:44:14.372Z,31.15
2023-01-10T07:45:13.930Z,31.05
2023-01-10T07:46:13.935Z,30.91
2023-01-10T07:47:14.320Z,26.70
2023-01-10T07:48:13.843Z,26.32
2023-01-10T07:49:13.771Z,26.76
2023-01-10T07:50:14.019Z,26.24
2023-01-10T07:51:14.728Z,25.65
2023-01-10T07:52:13.897Z,25.52
2023-01-10T07:53:13.613Z,25.37
2023-01-10T07:54:14.864Z,25.31
2023-01-10T07:55:13.544Z,25.22
2023-01-10T07:56:13.507Z,25.29
2023-01-10T07:57:13.507Z,25.22
2023-01-10T07:58:13.791Z,25.21
2023-01-10T07:59:13.430Z,25.20
2023-01-10T08:00:13.402Z,25.22
2023-01-10T08:01:13.432Z,25.20
2023-01-10T08:02:13.492Z,25.15
2023-01-10T08:03:13.580Z,25.23
2023-01-10T08:04:13.369Z,25.58
2023-01-10T08:05:13.309Z,25.47
2023-01-10T08:06:15.929Z,25.36
2023-01-10T08:07:13.270Z,25.41
2023-01-10T08:08:13.308Z,25.62
2023-01-10T08:09:13.293Z,25.71
2023-01-10T08:10:13.191Z,25.91
2023-01-10T08:11:13.299Z,25.82
2023-01-10T08:12:13.152Z,25.89
2023-01-10T08:13:18.841Z,25.80
2023-01-10T08:14:13.457Z,25.71
2023-01-10T08:15:13.101Z,25.58
2023-01-10T08:16:13.200Z,25.46
2023-01-10T08:17:13.052Z,25.44
2023-01-10T08:18:13.056Z,25.30
2023-01-10T08:19:12.995Z,25.27
2023-01-10T08:20:12.973Z,25.18
2023-01-10T08:21:13.345Z,25.15
2023-01-10T08:22:12.915Z,25.13
2023-01-10T08:23:12.901Z,25.05
2023-01-10T08:24:12.847Z,25.07
2023-01-10T08:25:12.834Z,24.96
2023-01-10T08:26:12.832Z,24.92
2023-01-10T08:27:13.744Z,24.94
2023-01-10T08:28:12.703Z,24.89
2023-01-10T08:29:12.666Z,24.98
2023-01-10T08:30:12.632Z,24.97
2023-01-10T08:31:12.963Z,24.92
2023-01-10T08:32:12.583Z,24.84
2023-01-10T08:33:12.538Z,24.73
2023-01-10T08:34:12.493Z,24.77
2023-01-10T08:35:12.463Z,24.75
2023-01-10T08:36:12.425Z,24.77
2023-01-10T08:37:12.824Z,24.78
2023-01-10T08:38:12.370Z,24.74
2023-01-10T08:39:12.876Z,24.85
2023-01-10T08:40:12.263Z,24.82
2023-01-10T08:41:12.261Z,24.93
2023-01-10T08:42:12.180Z,25.01
2023-01-10T08:43:12.133Z,25.13
2023-01-10T08:44:12.099Z,25.20
2023-01-10T08:45:12.312Z,25.27
2023-01-10T08:46:12.418Z,25.46
2023-01-10T08:47:12.008Z,24.04
2023-01-10T08:48:11.936Z,24.42
2023-01-10T08:49:11.898Z,25.48
2023-01-10T08:50:11.843Z,25.36
2023-01-10T08:51:11.884Z,25.60
2023-01-10T08:52:11.761Z,25.69
2023-01-10T08:53:11.714Z,25.79
2023-01-10T08:54:11.697Z,25.93
2023-01-10T08:55:11.665Z,26.06
2023-01-10T08:56:11.840Z,26.22
2023-01-10T08:57:11.551Z,26.24
2023-01-10T08:58:11.506Z,26.33
2023-01-10T08:59:11.487Z,26.48
2023-01-10T09:00:11.479Z,26.50
2023-01-10T09:01:11.462Z,26.67
2023-01-10T09:02:11.891Z,26.66
2023-01-10T09:03:11.393Z,26.72
2023-01-10T09:04:11.348Z,26.82
2023-01-10T09:05:22.264Z,26.90
2023-01-10T09:06:12.496Z,26.97
2023-01-10T09:07:11.282Z,27.12
2023-01-10T09:08:12.072Z,27.20
2023-01-10T09:09:11.861Z,27.29
2023-01-10T09:10:11.999Z,27.37
2023-01-10T09:11:10.961Z,27.57
2023-01-10T09:12:10.865Z,27.58
2023-01-10T09:13:10.813Z,27.73
2023-01-10T09:14:10.814Z,27.81
2023-01-10T09:15:10.861Z,27.87
2023-01-10T09:16:10.754Z,27.95
2023-01-10T09:17:10.889Z,28.02
2023-01-10T09:18:10.625Z,28.13
2023-01-10T09:19:10.912Z,28.27
2023-01-10T09:20:10.554Z,28.31
2023-01-10T09:21:10.455Z,28.34
2023-01-10T09:22:10.417Z,28.47
2023-01-10T09:23:10.580Z,28.47
2023-01-10T09:24:10.417Z,28.62
2023-01-10T09:25:10.342Z,28.72
2023-01-10T09:26:10.243Z,28.86
2023-01-10T09:27:10.244Z,29.17
2023-01-10T09:28:10.152Z,29.03
2023-01-10T09:29:10.099Z,29.11
2023-01-10T09:30:10.044Z,29.12
2023-01-10T09:31:10.072Z,29.18
2023-01-10T09:32:09.944Z,29.33
2023-01-10T09:33:09.898Z,29.42
2023-01-10T09:34:09.828Z,29.47
2023-01-10T09:35:09.854Z,29.57
2023-01-10T09:36:10.361Z,29.74
2023-01-10T09:37:09.702Z,29.93
2023-01-10T09:38:09.869Z,29.84
2023-01-10T09:39:10.857Z,29.91
2023-01-10T09:40:09.535Z,30.03
2023-01-10T09:41:09.497Z,30.06
2023-01-10T09:42:09.433Z,30.09
2023-01-10T09:43:09.999Z,30.19
2023-01-10T09:44:09.421Z,30.28
2023-01-10T09:45:09.256Z,30.38
2023-01-10T09:46:09.212Z,30.44
2023-01-10T09:47:21.486Z,30.49
2023-01-10T09:48:09.102Z,30.56
2023-01-10T09:49:09.031Z,30.72
2023-01-10T09:50:09.380Z,30.76
2023-01-10T09:51:08.943Z,30.78
2023-01-10T09:52:08.890Z,30.81
2023-01-10T09:53:08.828Z,30.88
2023-01-10T09:54:12.802Z,30.90
2023-01-10T09:55:08.866Z,30.95
2023-01-10T09:56:08.709Z,30.93
2023-01-10T09:57:08.780Z,31.07
2023-01-10T09:58:08.617Z,31.16
2023-01-10T09:59:08.658Z,31.36
2023-01-10T10:00:09.255Z,31.39
2023-01-10T10:01:08.541Z,31.46
2023-01-10T10:02:08.402Z,31.52
2023-01-10T10:03:08.431Z,31.61
2023-01-10T10:04:08.377Z,31.64
2023-01-10T10:05:08.386Z,31.66
2023-01-10T10:06:12.368Z,31.63
2023-01-10T10:07:08.079Z,31.83
2023-01-10T10:08:08.065Z,31.84
2023-01-10T10:09:08.035Z,31.98
2023-01-10T10:10:08.578Z,31.99
2023-01-10T10:11:07.937Z,32.06
2023-01-10T10:12:07.875Z,32.16
2023-01-10T10:13:08.085Z,32.21
2023-01-10T10:14:07.693Z,32.25
2023-01-10T10:15:07.670Z,32.36
2023-01-10T10:16:07.614Z,32.42
2023-01-10T10:17:08.475Z,32.62
2023-01-10T10:18:07.431Z,32.60
2023-01-10T10:19:07.435Z,32.59
2023-01-10T10:20:07.432Z,32.57
2023-01-10T10:21:07.291Z,32.59
2023-01-10T10:22:07.185Z,32.74
2023-01-10T10:23:07.133Z,32.70
2023-01-10T10:24:07.080Z,32.77
2023-01-10T10:25:07.494Z,32.89
2023-01-10T10:26:06.974Z,33.03
2023-01-10T10:27:06.967Z,33.15
2023-01-10T10:28:08.343Z,33.75
2023-01-10T10:29:07.093Z,33.05
2023-01-10T10:30:08.665Z,32.98
2023-01-10T10:31:07.431Z,32.81
2023-01-10T10:32:07.219Z,32.79
2023-01-10T10:33:07.503Z,32.80
2023-01-10T10:34:06.981Z,32.74
2023-01-10T10:35:07.272Z,32.57
2023-01-10T10:36:06.846Z,32.32
2023-01-10T10:37:06.935Z,31.83
2023-01-10T10:38:07.095Z,31.59
2023-01-10T10:39:11.719Z,31.52
2023-01-10T10:40:06.684Z,31.32
2023-01-10T10:41:07.159Z,31.05
2023-01-10T10:42:06.732Z,30.89
2023-01-10T10:43:06.548Z,30.87
2023-01-10T10:44:06.880Z,30.71
2023-01-10T10:45:06.897Z,30.81
2023-01-10T10:46:06.853Z,30.74
2023-01-10T10:47:06.310Z,30.71
2023-01-10T10:48:06.299Z,30.64
2023-01-10T10:49:06.185Z,30.66
2023-01-10T10:50:06.132Z,30.64
2023-01-10T10:51:06.094Z,30.75
2023-01-10T10:52:06.382Z,30.72
2023-01-10T10:53:05.979Z,30.63
2023-01-10T10:54:05.930Z,30.63
2023-01-10T10:55:05.874Z,30.58
2023-01-10T10:56:05.893Z,30.31
2023-01-10T10:57:05.754Z,28.92
2023-01-10T10:58:05.775Z,26.53
2023-01-10T10:59:05.747Z,28.13
2023-01-10T11:00:05.635Z,28.70
2023-01-10T11:01:05.720Z,28.88
2023-01-10T11:02:06.115Z,29.04
2023-01-10T11:03:05.551Z,29.40
2023-01-10T11:04:05.457Z,29.66
2023-01-10T11:05:05.520Z,29.85
2023-01-10T11:06:05.482Z,30.01
2023-01-10T11:07:05.316Z,30.04
2023-01-10T11:08:05.285Z,30.17
2023-01-10T11:09:05.258Z,30.20
2023-01-10T11:10:05.177Z,30.21
2023-01-10T11:11:05.151Z,30.28
2023-01-10T11:12:05.357Z,30.21
2023-01-10T11:13:05.028Z,30.21
2023-01-10T11:14:04.972Z,30.14
2023-01-10T11:15:04.957Z,30.15
2023-01-10T11:16:04.904Z,30.39
2023-01-10T11:17:04.810Z,29.65
2023-01-10T11:18:04.760Z,27.15
2023-01-10T11:19:05.746Z,26.44
2023-01-10T11:20:04.974Z,25.94
2023-01-10T11:21:04.627Z,26.32
2023-01-10T11:22:04.597Z,25.78
2023-01-10T11:23:04.544Z,26.54
2023-01-10T11:24:04.497Z,26.93
2023-01-10T11:25:04.466Z,26.90
2023-01-10T11:26:04.886Z,26.97
2023-01-10T11:27:04.408Z,27.06
2023-01-10T11:28:04.362Z,27.39
2023-01-10T11:29:04.357Z,27.87
2023-01-10T11:30:04.286Z,27.97
2023-01-10T11:31:04.382Z,28.11
2023-01-10T11:32:04.283Z,28.37
2023-01-10T11:33:04.168Z,28.64
2023-01-10T11:34:04.369Z,29.02
2023-01-10T11:35:04.121Z,29.08
2023-01-10T11:36:04.044Z,29.16
2023-01-10T11:37:04.139Z,29.30
2023-01-10T11:38:03.952Z,29.44
2023-01-10T11:39:04.378Z,29.51
2023-01-10T11:40:03.872Z,29.59
2023-01-10T11:41:03.801Z,29.67
2023-01-10T11:42:03.751Z,29.83
2023-01-10T11:43:03.726Z,29.93
2023-01-10T11:44:03.900Z,30.05
2023-01-10T11:45:03.616Z,30.16
2023-01-10T11:46:03.603Z,30.28
2023-01-10T11:47:03.493Z,30.35
2023-01-10T11:48:03.438Z,30.48
2023-01-10T11:49:06.761Z,30.62
2023-01-10T11:50:03.541Z,30.69
2023-01-10T11:51:03.312Z,30.79
2023-01-10T11:52:03.398Z,30.90
2023-01-10T11:53:04.176Z,30.97
2023-01-10T11:54:03.208Z,31.13
2023-01-10T11:55:03.100Z,31.24
2023-01-10T11:56:03.037Z,31.21
2023-01-10T11:57:02.961Z,31.37
2023-01-10T11:58:03.376Z,32.00
2023-01-10T11:59:02.846Z,31.61
2023-01-10T12:00:02.809Z,31.73
2023-01-10T12:01:02.853Z,31.73
2023-01-10T12:02:02.992Z,31.80
2023-01-10T12:03:02.615Z,31.88
2023-01-10T12:04:02.565Z,31.92
2023-01-10T12:05:02.575Z,32.03
2023-01-10T12:06:02.443Z,32.38
2023-01-10T12:07:02.932Z,32.24
2023-01-10T12:08:02.331Z,32.26
2023-01-10T12:09:02.408Z,32.49
2023-01-10T12:10:02.383Z,32.45
2023-01-10T12:11:02.182Z,32.42
2023-01-10T12:12:02.447Z,32.50
2023-01-10T12:13:02.083Z,32.50
2023-01-10T12:14:02.033Z,32.64
2023-01-10T12:15:01.979Z,32.51
2023-01-10T12:16:01.923Z,32.38
2023-01-10T12:17:01.927Z,32.01
2023-01-10T12:18:01.891Z,31.72
2023-01-10T12:19:01.773Z,29.80
2023-01-10T12:20:01.730Z,29.77
2023-01-10T12:21:01.666Z,28.85
2023-01-10T12:22:01.600Z,28.86
2023-01-10T12:23:01.917Z,28.48
2023-01-10T12:24:01.519Z,29.59
2023-01-10T12:25:01.458Z,29.24
2023-01-10T12:26:11.357Z,30.62
2023-01-10T12:27:01.414Z,31.00
2023-01-10T12:28:01.298Z,30.96
2023-01-10T12:29:01.250Z,30.87
2023-01-10T12:30:01.196Z,31.03
2023-01-10T12:31:01.452Z,31.04
2023-01-10T12:32:01.094Z,31.05
2023-01-10T12:33:01.481Z,31.09
2023-01-10T12:34:01.001Z,31.19
2023-01-10T12:35:00.938Z,31.21
2023-01-10T12:36:00.887Z,31.29
2023-01-10T12:37:00.836Z,31.34
2023-01-10T12:38:00.794Z,31.44
2023-01-10T12:39:00.916Z,31.49
2023-01-10T12:40:00.697Z,31.65
2023-01-10T12:41:00.624Z,31.72
2023-01-10T12:42:00.570Z,31.85
2023-01-10T12:43:00.533Z,31.93
2023-01-10T12:44:00.898Z,31.96
2023-01-10T12:45:00.409Z,32.07
2023-01-10T12:46:02.858Z,32.19
2023-01-10T12:47:07.223Z,32.24
2023-01-10T12:48:00.431Z,32.31
2023-01-10T12:49:00.196Z,32.55
2023-01-10T12:50:00.183Z,33.08
2023-01-10T12:51:00.104Z,32.78
2023-01-10T12:52:00.051Z,32.67
2023-01-10T12:53:00.538Z,32.68
2023-01-10T12:54:00.072Z,32.67
2023-01-10T12:54:59.878Z,32.63
2023-01-10T12:55:59.817Z,32.57
2023-01-10T12:56:59.746Z,32.46
2023-01-10T12:57:59.926Z,32.33
2023-01-10T12:58:59.655Z,32.24
2023-01-10T12:59:59.578Z,32.26
2023-01-10T13:00:59.593Z,32.21
2023-01-10T13:01:59.585Z,32.06
2023-01-10T13:02:59.546Z,32.00
2023-01-10T13:03:59.409Z,32.00
2023-01-10T13:04:59.305Z,31.89
2023-01-10T13:05:59.260Z,31.88
2023-01-10T13:06:59.203Z,31.80
2023-01-10T13:07:59.782Z,31.77
2023-01-10T13:08:59.105Z,31.72
2023-01-10T13:09:59.043Z,31.78
2023-01-10T13:10:59.012Z,31.72
2023-01-10T13:11:58.940Z,31.68
2023-01-10T13:12:58.983Z,31.72
2023-01-10T13:13:58.850Z,31.70
2023-01-10T13:14:58.791Z,31.67
2023-01-10T13:15:58.868Z,31.69
2023-01-10T13:16:58.686Z,31.61
2023-01-10T13:17:58.956Z,31.61
2023-01-10T13:18:58.908Z,31.56
2023-01-10T13:19:58.529Z,31.64
2023-01-10T13:20:58.475Z,31.59
2023-01-10T13:21:58.433Z,31.59
2023-01-10T13:22:58.370Z,31.50
2023-01-10T13:23:58.403Z,31.58
2023-01-10T13:24:58.276Z,31.56
2023-01-10T13:25:58.418Z,31.48
2023-01-10T13:26:58.213Z,31.48
2023-01-10T13:27:58.309Z,31.45
2023-01-10T13:28:58.433Z,31.50
2023-01-10T13:29:58.498Z,31.44
2023-01-10T13:30:58.428Z,31.38
2023-01-10T13:31:57.898Z,31.39
2023-01-10T13:32:57.854Z,31.38
2023-01-10T13:33:57.960Z,31.30
2023-01-10T13:34:57.742Z,31.39
2023-01-10T13:35:57.692Z,31.30
2023-01-10T13:36:57.641Z,31.30
2023-01-10T13:37:57.595Z,31.22
2023-01-10T13:38:57.671Z,31.23
2023-01-10T13:39:57.913Z,31.22
2023-01-10T13:40:57.439Z,31.22
2023-01-10T13:41:57.367Z,31.25
2023-01-10T13:42:57.336Z,31.18
2023-01-10T13:43:57.256Z,31.19
2023-01-10T13:44:57.411Z,31.14
2023-01-10T13:45:57.207Z,31.16
2023-01-10T13:46:57.413Z,31.14